Time;durP1;ratioP1;P1;durP2;ratioP2;P2;SDS_P1;SDS_P2;PMS_P1;PMS_P2;Temp;Humidity;BMP_temperature;BMP_pressure;BME280_temperature;BME280_humidity;BME280_pressure;Samples;Min_cycle;Max_cycle;Signal;HPM_P1;HPM_P2
2021/09/25 06:01:13;;;;;;;13.00;10.08;;;;;;;10.30;100.00;100297.56;1807038;75;21930;-88
2021/09/25 06:03:42;;;;;;;13.10;10.70;;;;;;;10.30;100.00;100308.78;1736860;80;21078;-86
2021/09/25 06:06:09;;;;;;;12.07;10.85;;;;;;;10.33;100.00;100315.55;1730025;80;21147;-88
2021/09/25 06:08:38;;;;;;;14.00;11.73;;;;;;;10.33;100.00;100312.46;1757501;80;21022;-88
2021/09/25 06:11:14;;;;;;;16.93;11.73;;;;;;;10.35;100.00;100326.19;1732674;80;21547;-88
2021/09/25 06:13:37;;;;;;;14.33;11.60;;;;;;;10.37;100.00;100326.09;1708745;81;20939;-88
2021/09/25 06:16:07;;;;;;;13.78;10.70;;;;;;;10.41;100.00;100332.23;1724668;80;21810;-86
2021/09/25 06:18:42;;;;;;;22.17;15.88;;;;;;;10.41;100.00;100327.03;1746446;80;21082;-88
2021/09/25 06:21:06;;;;;;;15.48;11.60;;;;;;;10.42;100.00;100339.55;1731413;80;21025;-87
2021/09/25 06:23:53;;;;;;;;;;;;;;;;;;;;;
2021/09/25 06:26:25;;;;;;;;;;;;;;;;;;;;;
2021/09/25 06:28:48;;;;;;;16.10;11.55;;;;;;;10.59;100.00;100361.67;1657072;80;21553;-89
2021/09/25 06:31:22;;;;;;;15.95;13.32;;;;;;;10.57;100.00;100365.70;1777480;79;21360;-88
2021/09/25 06:33:52;;;;;;;14.03;11.22;;;;;;;10.59;100.00;100372.09;1776576;79;21057;-88
2021/09/25 06:36:34;;;;;;;;;;;;;;;;;;;;;
2021/09/25 06:39:07;;;;;;;13.10;11.12;;;;;;;10.62;100.00;100379.63;1745280;80;21044;-90
2021/09/25 06:41:30;;;;;;;13.03;11.30;;;;;;;10.65;100.00;100388.52;1733158;80;21089;-85
2021/09/25 06:44:10;;;;;;;;;;;;;;;;;;;;;
2021/09/25 06:49:33;;;;;;;15.30;11.88;;;;;;;10.62;100.00;100410.88;1770995;80;27447;-86
2021/09/25 06:52:06;;;;;;;16.27;13.60;;;;;;;10.58;100.00;100414.20;1745818;81;21031;-86
2021/09/25 06:54:39;;;;;;;15.72;12.95;;;;;;;10.58;100.00;100415.98;1693677;82;21517;-87
2021/09/25 06:57:12;;;;;;;15.63;13.65;;;;;;;10.59;100.00;100413.75;1588022;88;21008;-88
2021/09/25 06:59:41;;;;;;;15.88;14.07;;;;;;;10.58;100.00;100415.50;1664884;84;21045;-87
2021/09/25 07:02:08;;;;;;;15.05;13.48;;;;;;;10.62;100.00;100419.99;1718895;82;20966;-88
2021/09/25 07:07:49;;;;;;;17.25;14.98;;;;;;;10.70;100.00;100426.73;1606565;87;21491;-91
2021/09/25 07:10:26;;;;;;;24.92;17.30;;;;;;;10.77;100.00;100426.27;1582477;87;21057;-92
2021/09/25 07:13:17;;;;;;;;;;;;;;;;;;;;;
2021/09/25 07:15:50;;;;;;;19.87;13.15;;;;;;;10.77;100.00;100432.78;1652641;86;21477;-92
2021/09/25 07:18:19;;;;;;;15.38;12.73;;;;;;;10.76;100.00;100431.94;1654601;84;21161;-88
2021/09/25 07:20:48;;;;;;;17.80;15.90;;;;;;;10.78;100.00;100444.37;1628674;87;22324;-90
2021/09/25 07:23:22;;;;;;;16.77;13.25;;;;;;;10.78;100.00;100446.13;1593470;87;21104;-87
2021/09/25 07:26:00;;;;;;;19.45;16.32;;;;;;;10.75;100.00;100438.58;1680028;83;21025;-87
2021/09/25 07:28:20;;;;;;;13.75;12.45;;;;;;;10.76;100.00;100450.17;1639401;85;21065;-87
2021/09/25 07:30:51;;;;;;;14.60;13.10;;;;;;;10.76;100.00;100450.66;1659129;85;21119;-92
2021/09/25 07:33:24;;;;;;;27.98;13.28;;;;;;;10.75;100.00;100453.72;1667604;84;21034;-87
2021/09/25 07:36:00;;;;;;;14.60;12.98;;;;;;;10.73;100.00;100449.94;1658790;84;21060;-92
2021/09/25 07:42:07;;;;;;;12.98;11.68;;;;;;;10.73;100.00;100460.36;1581913;89;21139;-91
2021/09/25 07:48:47;;;;;;;13.40;11.30;;;;;;;10.69;100.00;100464.16;1483815;94;22091;-91
2021/09/25 08:24:58;;;;;;;;;;;;;;;;;;;;;
2021/09/25 09:32:07;;;;;;;;;;;;;;;;;;;;;
2021/09/25 09:35:25;;;;;;;;;;;;;;;;;;;;;
2021/09/25 09:43:02;;;;;;;;;;;;;;;;;;;;;
2021/09/25 09:47:22;;;;;;;;;;;;;;;;;;;;;
2021/09/25 09:49:57;;;;;;;3.40;3.10;;;;;;;12.62;100.00;100552.05;1356337;100;21269;-92
2021/09/25 09:52:33;;;;;;;4.40;3.58;;;;;;;12.62;100.00;100554.66;1434994;94;21206;-91
2021/09/25 09:55:13;;;;;;;3.80;3.50;;;;;;;12.61;100.00;100562.17;1504154;91;21166;-92
2021/09/25 09:57:42;;;;;;;4.53;3.47;;;;;;;12.54;100.00;100557.59;1679941;83;21515;-89
2021/09/25 10:00:11;;;;;;;3.60;3.30;;;;;;;12.43;100.00;100561.11;1668975;85;21084;-90
2021/09/25 10:02:40;;;;;;;4.17;3.52;;;;;;;12.37;100.00;100560.32;1711501;82;21104;-88
2021/09/25 10:05:08;;;;;;;4.28;3.25;;;;;;;12.34;100.00;100563.98;1717338;82;21050;-91
2021/09/25 10:07:36;;;;;;;3.50;3.30;;;;;;;12.33;100.00;100565.44;1699444;82;22515;-91
2021/09/25 10:10:04;;;;;;;29.07;14.50;;;;;;;12.35;100.00;100559.61;1661231;83;21064;-88
2021/09/25 10:12:32;;;;;;;13.48;6.65;;;;;;;12.40;100.00;100566.57;1676180;83;20998;-89
2021/09/25 10:15:00;;;;;;;6.92;5.05;;;;;;;12.43;100.00;100563.23;1664661;83;21088;-89
2021/09/25 10:17:27;;;;;;;3.77;3.40;;;;;;;12.48;100.00;100569.86;1700743;83;21065;-91
2021/09/25 10:19:57;;;;;;;3.65;3.35;;;;;;;12.56;100.00;100566.13;1696381;83;20990;-91
2021/09/25 10:22:31;;;;;;;12.13;7.30;;;;;;;12.63;100.00;100570.69;1725663;81;21700;-89
2021/09/25 10:25:02;;;;;;;4.25;3.85;;;;;;;12.72;100.00;100568.25;1710592;82;21077;-91
2021/09/25 10:27:41;;;;;;;3.20;2.90;;;;;;;12.80;100.00;100565.81;1719402;81;21257;-89
2021/09/25 10:30:11;;;;;;;4.42;3.00;;;;;;;12.87;100.00;100569.55;1754428;80;21103;-88
2021/09/25 10:32:50;;;;;;;5.45;2.98;;;;;;;12.93;100.00;100568.20;1745725;81;21111;-90
2021/09/25 10:35:23;;;;;;;5.42;3.92;;;;;;;12.99;100.00;100570.28;1720026;81;21579;-89
2021/09/25 10:37:54;;;;;;;14.00;7.25;;;;;;;13.08;100.00;100576.03;1713272;81;21092;-90
2021/09/25 10:40:26;;;;;;;17.25;9.03;;;;;;;13.16;100.00;100578.00;1741352;81;21781;-88
2021/09/25 10:43:00;;;;;;;5.62;4.12;;;;;;;13.27;100.00;100570.52;1743505;81;21089;-90
2021/09/25 10:45:35;;;;;;;4.95;4.35;;;;;;;13.35;100.00;100569.83;1742001;81;21099;-90
2021/09/25 10:48:16;;;;;;;5.55;3.85;;;;;;;13.42;100.00;100574.90;1744560;81;21084;-92
2021/09/25 10:51:05;;;;;;;4.10;3.80;;;;;;;13.48;100.00;100576.16;1715499;81;21064;-90
2021/09/25 10:53:37;;;;;;;4.40;4.00;;;;;;;13.53;100.00;100573.48;1672405;82;21921;-90
2021/09/25 10:56:20;;;;;;;5.20;3.27;;;;;;;13.59;100.00;100577.81;1709308;82;21576;-89
2021/09/25 10:59:07;;;;;;;4.55;3.60;;;;;;;13.63;100.00;100570.88;1750667;81;21092;-93
2021/09/25 11:01:43;;;;;;;3.45;3.20;;;;;;;13.65;100.00;100573.38;1693836;83;21117;-91
2021/09/25 11:04:22;;;;;;;3.15;2.85;;;;;;;13.81;100.00;100565.80;1692474;83;21013;-89
2021/09/25 11:06:58;;;;;;;6.03;2.90;;;;;;;14.07;100.00;100562.60;1716601;83;21026;-89
2021/09/25 11:09:28;;;;;;;3.40;2.72;;;;;;;14.38;100.00;100558.98;1689969;83;21088;-92
2021/09/25 11:12:03;;;;;;;2.77;2.58;;;;;;;14.49;100.00;100554.39;1712383;82;21021;-89
2021/09/25 11:14:45;;;;;;;2.95;2.70;;;;;;;14.50;100.00;100558.67;1684609;83;21587;-89
2021/09/25 11:17:23;;;;;;;3.95;2.70;;;;;;;14.41;100.00;100556.09;1689048;83;20963;-89
2021/09/25 11:19:58;;;;;;;3.10;2.80;;;;;;;14.27;100.00;100562.09;1692350;83;21125;-91
2021/09/25 11:22:36;;;;;;;2.90;2.70;;;;;;;14.18;100.00;100567.70;1666430;83;20964;-90
2021/09/25 11:25:13;;;;;;;7.25;6.55;;;;;;;14.14;100.00;100571.55;1709489;82;21092;-92
2021/09/25 11:27:49;;;;;;;4.72;4.33;;;;;;;14.24;100.00;100579.87;1752703;80;21196;-90
2021/09/25 11:30:21;;;;;;;2.83;2.62;;;;;;;14.31;100.00;100579.19;1681184;83;21120;-90
2021/09/25 11:32:53;;;;;;;5.33;4.83;;;;;;;14.40;100.00;100579.31;1660199;82;21179;-89
2021/09/25 11:35:31;;;;;;;4.58;3.42;;;;;;;14.44;100.00;100586.75;1710763;82;21081;-91
2021/09/25 11:38:10;;;;;;;19.00;15.80;;;;;;;14.46;100.00;100587.91;1691870;81;21176;-89
2021/09/25 11:40:41;;;;;;;5.25;4.58;;;;;;;14.48;100.00;100596.47;1709959;81;21100;-89
2021/09/25 11:43:19;;;;;;;3.65;3.30;;;;;;;14.58;100.00;100589.38;1766008;80;21491;-89
2021/09/25 11:45:54;;;;;;;3.17;2.55;;;;;;;14.75;100.00;100583.09;1711541;81;21471;-90
2021/09/25 11:48:28;;;;;;;8.53;6.92;;;;;;;14.92;100.00;100593.33;1722935;81;21162;-90
2021/09/25 11:50:56;;;;;;;;;;;;;;;15.10;100.00;100590.75;1758592;81;21068;-90
2021/09/25 11:53:27;;;;;;;2.27;2.17;;;;;;;15.22;100.00;100584.33;1730642;81;20471;-89
2021/09/25 11:55:54;;;;;;;2.30;2.10;;;;;;;15.34;100.00;100590.70;1756441;81;21375;-88
2021/09/25 11:58:23;;;;;;;2.42;2.22;;;;;;;15.41;100.00;100596.53;1748713;81;21068;-90
2021/09/25 12:00:57;;;;;;;2.10;2.00;;;;;;;15.42;100.00;100608.66;1748491;82;21029;-90
2021/09/25 12:03:39;;;;;;;2.35;2.15;;;;;;;15.38;100.00;100606.00;1745478;80;21104;-91
2021/09/25 12:06:05;;;;;;;2.45;2.25;;;;;;;15.29;100.00;100617.37;1720683;82;21776;-91
2021/09/25 12:08:32;;;;;;;2.37;2.20;;;;;;;15.28;100.00;100613.09;1742647;81;21101;-89
2021/09/25 12:11:07;;;;;;;3.05;2.35;;;;;;;15.28;100.00;100615.70;1760221;80;21063;-90
2021/09/25 12:13:41;;;;;;;3.25;2.40;;;;;;;15.26;100.00;100611.93;1697473;83;21088;-91
2021/09/25 12:16:16;;;;;;;2.17;2.08;;;;;;;15.22;100.00;100619.73;1685994;82;21058;-90
2021/09/25 12:18:49;;;;;;;2.37;2.17;;;;;;;15.12;100.00;100619.79;1703822;82;21034;-91
2021/09/25 12:21:28;;;;;;;3.72;2.77;;;;;;;15.07;100.00;100616.79;1684015;82;21073;-91
2021/09/25 12:24:04;;;;;;;3.00;2.80;;;;;;;15.09;100.00;100611.39;1699080;82;21109;-89
2021/09/25 12:26:34;;;;;;;3.12;2.50;;;;;;;15.06;100.00;100619.56;1710034;81;21557;-92
2021/09/25 12:29:04;;;;;;;2.80;2.17;;;;;;;14.95;100.00;100622.70;1740260;80;20951;-90
2021/09/25 12:31:36;;;;;;;2.30;2.10;;;;;;;14.83;100.00;100629.91;1711495;81;21453;-91
2021/09/25 12:34:20;;;;;;;2.12;1.92;;;;;;;14.72;100.00;100634.00;1737301;80;21132;-87
2021/09/25 12:36:48;;;;;;;;;;;;;;;14.62;100.00;100631.88;1686377;81;21337;-90
2021/09/25 12:39:22;;;;;;;2.47;2.27;;;;;;;14.56;100.00;100635.89;1735398;80;20137;-91
2021/09/25 12:41:59;;;;;;;2.80;2.60;;;;;;;14.57;100.00;100634.08;1695743;81;21489;-88
2021/09/25 12:44:31;;;;;;;2.17;2.00;;;;;;;14.61;100.00;100636.28;1710634;82;21498;-89
2021/09/25 12:46:59;;;;;;;2.42;2.17;;;;;;;14.64;100.00;100638.62;1740795;81;22103;-91
2021/09/25 12:49:35;;;;;;;4.65;4.12;;;;;;;14.67;100.00;100642.29;1737573;81;21101;-89
2021/09/25 12:52:13;;;;;;;3.47;2.60;;;;;;;14.68;100.00;100643.14;1730562;80;21604;-89
2021/09/25 12:54:46;;;;;;;2.10;2.00;;;;;;;14.70;100.00;100646.91;1669551;83;21103;-88
2021/09/25 12:57:22;;;;;;;2.20;2.00;;;;;;;14.71;100.00;100645.95;1695660;81;21025;-90
2021/09/25 12:59:58;;;;;;;2.12;2.00;;;;;;;14.73;100.00;100647.45;1764950;80;21520;-91
2021/09/25 13:02:31;;;;;;;2.60;2.30;;;;;;;14.70;100.00;100648.23;1764018;80;21506;-89
2021/09/25 13:05:07;;;;;;;2.15;1.92;;;;;;;14.70;100.00;100648.23;1762836;80;21074;-91
2021/09/25 13:07:39;;;;;;;1.92;1.82;;;;;;;14.65;100.00;100659.09;1680942;83;21132;-89
2021/09/25 13:10:17;;;;;;;2.17;1.95;;;;;;;14.63;100.00;100667.58;1641921;84;21108;-88
2021/09/25 13:12:54;;;;;;;1.90;1.70;;;;;;;14.62;100.00;100656.78;1682338;83;21144;-91
2021/09/25 13:15:30;;;;;;;2.10;1.90;;;;;;;14.61;100.00;100665.60;1656025;83;21137;-89
2021/09/25 13:18:00;;;;;;;2.10;1.67;;;;;;;14.58;100.00;100664.56;1666435;84;21029;-90
2021/09/25 13:20:31;;;;;;;1.75;1.65;;;;;;;14.54;100.00;100666.64;1666683;83;21558;-90
2021/09/25 13:23:02;;;;;;;;;;;;;;;14.48;100.00;100666.70;1672590;83;21062;-87
2021/09/25 13:25:34;;;;;;;2.45;2.25;;;;;;;14.39;100.00;100678.02;1666998;84;20199;-87
2021/09/25 13:28:05;;;;;;;2.42;2.22;;;;;;;14.31;100.00;100676.11;1678073;83;21914;-90
2021/09/25 13:30:32;;;;;;;1.92;1.70;;;;;;;14.25;100.00;100688.45;1690352;83;20991;-89
2021/09/25 13:33:00;;;;;;;1.92;1.80;;;;;;;14.23;100.00;100685.13;1689987;83;21054;-90
2021/09/25 13:35:27;;;;;;;2.00;1.80;;;;;;;14.22;100.00;100690.52;1682028;84;21095;-90
2021/09/25 13:37:54;;;;;;;2.25;2.02;;;;;;;14.21;100.00;100693.59;1691485;83;20976;-91
2021/09/25 13:40:21;;;;;;;2.55;2.30;;;;;;;14.17;100.00;100697.47;1649183;84;21075;-90
2021/09/25 13:42:48;;;;;;;3.00;2.70;;;;;;;14.14;100.00;100703.78;1670555;84;21605;-89
2021/09/25 13:45:17;;;;;;;3.55;2.60;;;;;;;14.07;100.00;100703.17;1670542;84;20988;-90
2021/09/25 13:47:45;;;;;;;3.10;2.90;;;;;;;13.98;100.00;100710.06;1672570;83;21638;-90
2021/09/25 13:50:12;;;;;;;3.62;3.33;;;;;;;13.88;100.00;100714.80;1740582;81;21086;-91
2021/09/25 13:52:40;;;;;;;3.92;3.30;;;;;;;13.80;100.00;100728.19;1686061;83;21188;-87
2021/09/25 13:55:09;;;;;;;3.47;3.22;;;;;;;13.73;100.00;100731.34;1681131;83;21052;-90
2021/09/25 13:57:36;;;;;;;3.98;3.67;;;;;;;13.65;100.00;100725.13;1682012;84;21144;-88
2021/09/25 14:00:04;;;;;;;8.25;7.37;;;;;;;13.60;100.00;100731.22;1664220;85;21018;-89
2021/09/25 14:02:33;;;;;;;5.05;4.55;;;;;;;13.55;100.00;100736.84;1661247;85;20998;-89
2021/09/25 14:05:59;;;;;;;4.53;3.50;;;;;;;13.53;100.00;100740.91;1689464;85;21831;-90
2021/09/25 14:08:28;;;;;;;4.10;3.70;;;;;;;13.52;100.00;100739.25;1690782;83;21110;-89
2021/09/25 14:10:56;;;;;;;4.58;4.17;;;;;;;13.51;100.00;100742.00;1668806;84;21539;-89
2021/09/25 14:13:23;;;;;;;4.30;3.80;;;;;;;13.49;100.00;100750.00;1668906;84;21074;-90
2021/09/25 14:15:50;;;;;;;4.40;4.00;;;;;;;13.45;100.00;100752.51;1647406;83;21046;-88
2021/09/25 14:18:18;;;;;;;5.08;4.65;;;;;;;13.41;100.00;100759.79;1667936;83;21089;-90
2021/09/25 14:20:45;;;;;;;7.50;6.03;;;;;;;13.35;100.00;100761.59;1689931;83;20990;-91
2021/09/25 14:23:14;;;;;;;6.75;5.12;;;;;;;13.31;100.00;100752.83;1687143;83;21600;-90
2021/09/25 14:25:43;;;;;;;6.65;4.12;;;;;;;13.28;100.00;100749.15;1669788;84;22011;-93
2021/09/25 14:28:15;;;;;;;4.60;4.20;;;;;;;13.25;100.00;100753.70;1677244;83;21109;-90
2021/09/25 14:30:42;;;;;;;4.90;4.03;;;;;;;13.23;100.00;100754.77;1691329;83;21968;-88
2021/09/25 14:33:09;;;;;;;4.40;4.00;;;;;;;13.19;100.00;100769.07;1711664;83;21022;-87
2021/09/25 14:35:36;;;;;;;4.60;4.20;;;;;;;13.15;100.00;100769.80;1711824;83;21588;-89
2021/09/25 14:38:03;;;;;;;6.35;4.05;;;;;;;13.10;100.00;100776.72;1672596;84;21039;-88
2021/09/25 14:40:30;;;;;;;6.72;4.83;;;;;;;13.09;100.00;100776.37;1670360;83;21081;-88
2021/09/25 14:42:58;;;;;;;5.15;4.70;;;;;;;13.08;100.00;100783.05;1692411;83;22177;-89
2021/09/25 14:45:29;;;;;;;5.60;5.10;;;;;;;13.06;100.00;100788.38;1692102;83;21111;-89
2021/09/25 14:47:54;;;;;;;5.65;5.12;;;;;;;13.06;100.00;100798.02;1689330;83;21121;-89
2021/09/25 14:50:21;;;;;;;5.47;4.97;;;;;;;13.04;100.00;100795.54;1670320;83;21031;-89
2021/09/25 14:52:48;;;;;;;6.22;5.45;;;;;;;13.03;100.00;100798.27;1692451;83;21435;-87
2021/09/25 14:55:15;;;;;;;5.83;5.20;;;;;;;13.01;100.00;100806.23;1670080;84;21086;-89
2021/09/25 14:57:42;;;;;;;6.78;5.92;;;;;;;12.99;100.00;100802.09;1672404;83;21070;-88
2021/09/25 15:00:10;;;;;;;6.03;5.55;;;;;;;12.96;100.00;100808.88;1711943;83;21125;-91
2021/09/25 15:02:38;;;;;;;7.65;5.75;;;;;;;12.93;100.00;100815.19;1690225;83;20971;-87
2021/09/25 15:05:06;;;;;;;6.45;5.95;;;;;;;12.88;100.00;100816.87;1690150;83;21066;-88
2021/09/25 15:07:33;;;;;;;7.08;6.47;;;;;;;12.85;100.00;100818.45;1706150;83;21149;-89
2021/09/25 15:10:00;;;;;;;6.22;5.62;;;;;;;12.82;100.00;100812.64;1711821;83;21053;-88
2021/09/25 15:12:27;;;;;;;8.38;6.00;;;;;;;12.80;100.00;100813.23;1689915;83;21607;-87
2021/09/25 15:14:54;;;;;;;6.83;6.12;;;;;;;12.78;100.00;100813.34;1690354;83;21117;-89
2021/09/25 15:17:21;;;;;;;6.87;6.28;;;;;;;12.76;100.00;100821.80;1690267;83;21133;-88
2021/09/25 15:19:48;;;;;;;7.17;6.35;;;;;;;12.73;100.00;100827.27;1689659;83;22376;-89
2021/09/25 15:22:16;;;;;;;8.45;6.55;;;;;;;12.72;100.00;100838.66;1740428;82;21002;-89
2021/09/25 15:24:43;;;;;;;6.47;5.97;;;;;;;12.72;100.00;100839.97;1689889;83;21026;-89
2021/09/25 15:27:10;;;;;;;6.58;6.03;;;;;;;12.71;100.00;100840.46;1684351;83;21520;-89
2021/09/25 15:29:39;;;;;;;7.03;6.00;;;;;;;12.71;100.00;100847.45;1728772;82;21520;-87
2021/09/25 15:32:10;;;;;;;9.55;6.95;;;;;;;12.70;100.00;100851.05;1666262;84;21179;-87
2021/09/25 15:34:39;;;;;;;9.10;7.00;;;;;;;12.72;100.00;100858.27;1715422;83;21097;-88
2021/09/25 15:37:07;;;;;;;22.00;8.53;;;;;;;12.72;100.00;100859.11;1750267;82;21598;-88
2021/09/25 15:39:36;;;;;;;10.60;6.97;;;;;;;12.73;100.00;100863.39;1741418;81;21007;-88
2021/09/25 15:42:06;;;;;;;8.93;7.25;;;;;;;12.75;100.00;100860.15;1719632;83;21065;-88
2021/09/25 15:44:35;;;;;;;8.40;6.85;;;;;;;12.77;100.00;100847.80;1730265;82;21896;-86
2021/09/25 15:47:03;;;;;;;11.53;7.12;;;;;;;12.82;100.00;100855.27;1713830;82;21003;-87
2021/09/25 15:49:31;;;;;;;9.78;6.17;;;;;;;12.83;100.00;100861.31;1713738;82;21013;-88
2021/09/25 15:51:59;;;;;;;19.42;6.85;;;;;;;12.83;100.00;100861.31;1712383;82;21465;-89
2021/09/25 15:54:26;;;;;;;11.15;6.20;;;;;;;12.85;100.00;100869.41;1692306;82;21044;-87
2021/09/25 15:56:54;;;;;;;11.83;6.70;;;;;;;12.88;100.00;100867.02;1692481;83;21872;-88
2021/09/25 15:59:21;;;;;;;16.75;6.92;;;;;;;12.89;100.00;100867.37;1691523;84;21517;-88
2021/09/25 16:01:48;;;;;;;12.15;6.55;;;;;;;12.88;100.00;100878.28;1705681;83;21584;-88
2021/09/25 16:04:15;;;;;;;9.95;6.75;;;;;;;12.89;100.00;100880.44;1710429;81;21019;-89
2021/09/25 16:06:44;;;;;;;30.48;7.58;;;;;;;12.90;100.00;100879.00;1751440;82;21021;-87
2021/09/25 16:09:11;;;;;;;22.70;9.43;;;;;;;12.92;100.00;100885.40;1751154;81;21756;-86
2021/09/25 16:11:38;;;;;;;18.62;11.30;;;;;;;12.96;100.00;100882.91;1742569;81;21033;-89
2021/09/25 16:14:05;;;;;;;22.27;11.88;;;;;;;13.01;100.00;100880.73;1693540;83;21026;-88
2021/09/25 16:16:32;;;;;;;19.98;12.63;;;;;;;13.04;100.00;100885.73;1720676;82;21120;-89
2021/09/25 16:18:59;;;;;;;11.30;10.15;;;;;;;13.07;100.00;100888.07;1696928;83;21564;-89
2021/09/25 16:21:28;;;;;;;18.45;15.15;;;;;;;13.09;100.00;100892.70;1694463;82;21096;-88
2021/09/25 16:23:55;;;;;;;17.52;14.50;;;;;;;13.08;100.00;100888.43;1700152;82;21160;-87
2021/09/25 16:26:32;;;;;;;24.50;19.10;;;;;;;13.06;100.00;100890.33;1710032;81;21454;-87
2021/09/25 16:28:59;;;;;;;15.95;14.25;;;;;;;13.08;100.00;100901.50;1720828;82;21021;-87
2021/09/25 16:31:27;;;;;;;15.25;13.18;;;;;;;13.09;100.00;100901.86;1690767;82;21551;-89
2021/09/25 16:33:54;;;;;;;15.95;11.33;;;;;;;13.12;100.00;100906.00;1719098;82;21140;-88
2021/09/25 16:36:21;;;;;;;13.22;11.28;;;;;;;13.14;100.00;100908.02;1696253;83;21050;-86
2021/09/25 16:38:48;;;;;;;16.48;12.07;;;;;;;13.14;100.00;100906.72;1692235;83;21062;-88
2021/09/25 16:41:15;;;;;;;13.68;11.08;;;;;;;13.15;100.00;100906.22;1694873;83;21029;-89
2021/09/25 16:43:42;;;;;;;11.70;10.60;;;;;;;13.12;100.00;100906.00;1698443;83;20955;-88
2021/09/25 16:46:09;;;;;;;15.18;11.08;;;;;;;13.14;100.00;100909.82;1675116;84;21051;-88
2021/09/25 16:48:36;;;;;;;12.43;11.22;;;;;;;13.15;100.00;100907.07;1644819;84;21082;-89
2021/09/25 16:51:03;;;;;;;14.18;12.30;;;;;;;13.16;100.00;100917.03;1692270;83;21123;-86
2021/09/25 16:53:32;;;;;;;14.43;12.90;;;;;;;13.16;100.00;100919.20;1691837;84;21067;-87
2021/09/25 16:55:58;;;;;;;14.60;13.10;;;;;;;13.15;100.00;100916.69;1683534;83;21069;-87
2021/09/25 16:58:25;;;;;;;15.25;13.70;;;;;;;13.16;100.00;100918.34;1691203;83;21110;-88
2021/09/25 17:00:52;;;;;;;16.30;13.48;;;;;;;13.15;100.00;100921.45;1670537;84;21095;-87
2021/09/25 17:03:19;;;;;;;16.55;14.85;;;;;;;13.12;100.00;100916.46;1663366;85;21519;-89
2021/09/25 17:05:46;;;;;;;19.52;16.93;;;;;;;13.12;100.00;100920.38;1681119;83;20980;-88
2021/09/25 17:08:14;;;;;;;22.55;18.07;;;;;;;13.12;100.00;100914.34;1692055;83;21043;-88
2021/09/25 17:10:41;;;;;;;20.10;18.10;;;;;;;13.12;100.00;100915.64;1692170;84;21798;-86
2021/09/25 17:13:08;;;;;;;20.20;18.10;;;;;;;13.13;100.00;100918.61;1670651;84;21577;-85
2021/09/25 17:15:35;;;;;;;19.55;17.55;;;;;;;13.12;100.00;100913.84;1640564;86;20982;-88
2021/09/25 17:18:02;;;;;;;19.80;17.82;;;;;;;13.10;100.00;100907.91;1664077;84;21524;-88
2021/09/25 17:20:29;;;;;;;19.30;17.10;;;;;;;13.10;100.00;100906.59;1678595;84;21074;-87
2021/09/25 17:23:01;;;;;;;23.12;19.25;;;;;;;13.09;100.00;100907.58;1734806;81;21085;-87
2021/09/25 17:25:30;;;;;;;24.35;20.05;;;;;;;13.07;100.00;100914.70;1736777;81;21025;-85
2021/09/25 17:27:57;;;;;;;24.47;20.17;;;;;;;13.05;100.00;100910.07;1687767;83;21054;-87
2021/09/25 17:30:25;;;;;;;27.00;22.02;;;;;;;13.05;100.00;100915.30;1700246;82;21054;-85
2021/09/25 17:32:52;;;;;;;25.65;23.07;;;;;;;13.05;100.00;100921.84;1721243;82;21046;-86
2021/09/25 17:35:19;;;;;;;27.17;23.27;;;;;;;13.03;100.00;100919.81;1722941;81;21144;-89
2021/09/25 17:37:46;;;;;;;27.93;24.10;;;;;;;13.04;100.00;100917.56;1696445;83;21793;-89
2021/09/25 17:40:15;;;;;;;27.77;23.50;;;;;;;13.05;100.00;100924.45;1721405;82;21007;-87
2021/09/25 17:42:43;;;;;;;28.05;23.98;;;;;;;13.04;100.00;100924.09;1721395;82;20990;-88
2021/09/25 17:45:11;;;;;;;31.62;26.50;;;;;;;13.01;100.00;100920.44;1724479;81;21050;-89
2021/09/25 17:47:39;;;;;;;29.57;24.85;;;;;;;12.99;100.00;100925.77;1729466;82;21140;-89
2021/09/25 17:50:08;;;;;;;29.82;24.80;;;;;;;12.99;100.00;100923.64;1744435;80;21057;-86
2021/09/25 17:52:35;;;;;;;28.40;25.15;;;;;;;13.00;100.00;100920.89;1729924;81;21058;-87
2021/09/25 17:55:03;;;;;;;28.60;25.52;;;;;;;12.99;100.00;100923.64;1745517;80;21059;-88
2021/09/25 17:57:30;;;;;;;29.72;26.52;;;;;;;12.99;100.00;100928.38;1732351;82;21022;-86
2021/09/25 17:59:57;;;;;;;30.88;25.75;;;;;;;12.96;100.00;100928.65;1682302;83;21094;-87
2021/09/25 18:02:25;;;;;;;29.05;25.80;;;;;;;12.97;100.00;100930.31;1662839;84;21070;-92
2021/09/25 18:04:54;;;;;;;57.95;27.73;;;;;;;13.00;100.00;100931.84;1683357;82;21497;-89
2021/09/25 18:07:26;;;;;;;92.67;27.95;;;;;;;13.02;100.00;100928.14;1672631;84;21047;-92
2021/09/25 18:09:53;;;;;;;51.98;27.48;;;;;;;13.04;100.00;100928.02;1679977;84;20955;-90
2021/09/25 18:12:22;;;;;;;35.80;28.00;;;;;;;13.08;100.00;100932.05;1675085;83;21086;-88
2021/09/25 18:14:51;;;;;;;42.27;28.35;;;;;;;13.10;100.00;100931.43;1696558;82;21049;-91
2021/09/25 18:17:22;;;;;;;40.70;28.73;;;;;;;13.14;100.00;100928.94;1694299;83;21388;-88
2021/09/25 18:20:00;;;;;;;37.20;27.40;;;;;;;13.17;100.00;100926.09;1693779;83;21065;-89
2021/09/25 18:22:28;;;;;;;37.88;28.05;;;;;;;13.18;100.00;100917.75;1726622;82;21111;-87
2021/09/25 18:24:57;;;;;;;37.95;26.97;;;;;;;13.18;100.00;100916.45;1720651;83;21150;-88
2021/09/25 18:27:26;;;;;;;39.33;27.13;;;;;;;13.19;100.00;100924.16;1751027;81;21003;-89
2021/09/25 18:29:55;;;;;;;38.63;27.20;;;;;;;13.20;100.00;100920.59;1690484;82;20958;-86
2021/09/25 18:32:23;;;;;;;37.03;27.73;;;;;;;13.19;100.00;100928.56;1636881;85;22156;-88
2021/09/25 18:34:54;;;;;;;37.83;26.60;;;;;;;13.14;100.00;100925.02;1713035;83;21049;-87
2021/09/25 18:37:21;;;;;;;30.77;23.83;;;;;;;13.12;100.00;100923.00;1683415;82;22421;-87
2021/09/25 18:39:49;;;;;;;32.58;23.98;;;;;;;13.09;100.00;100921.95;1713352;83;21057;-89
2021/09/25 18:42:19;;;;;;;35.23;22.25;;;;;;;13.07;100.00;100918.63;1695244;81;21082;-88
2021/09/25 18:44:48;;;;;;;46.00;39.05;;;;;;;13.06;100.00;100920.39;1685126;83;21067;-86
2021/09/25 18:47:16;;;;;;;44.33;36.10;;;;;;;13.06;100.00;100919.58;1693258;81;21086;-90
2021/09/25 18:49:44;;;;;;;35.15;25.30;;;;;;;13.06;100.00;100920.88;1688769;82;21065;-88
2021/09/25 18:52:11;;;;;;;34.15;23.95;;;;;;;13.05;100.00;100916.61;1740276;81;20993;-88
2021/09/25 18:54:38;;;;;;;32.63;22.90;;;;;;;13.07;100.00;100929.08;1765903;80;21053;-87
2021/09/25 18:57:05;;;;;;;30.37;23.47;;;;;;;13.07;100.00;100926.47;1740306;81;21041;-87
2021/09/25 18:59:32;;;;;;;29.52;23.30;;;;;;;13.08;100.00;100929.44;1765950;80;21540;-88
2021/09/25 19:01:59;;;;;;;31.82;23.92;;;;;;;13.08;100.00;100928.95;1740319;81;21144;-88
2021/09/25 19:04:26;;;;;;;29.10;22.17;;;;;;;13.07;100.00;100929.08;1740214;82;21093;-88
2021/09/25 19:06:53;;;;;;;27.27;20.25;;;;;;;13.05;100.00;100927.06;1765776;80;21061;-88
2021/09/25 19:09:20;;;;;;;27.42;20.25;;;;;;;13.04;100.00;100916.25;1766051;80;21176;-88
2021/09/25 19:11:47;;;;;;;29.52;19.73;;;;;;;13.04;100.00;100916.25;1765684;80;20994;-87
2021/09/25 19:14:14;;;;;;;27.45;19.92;;;;;;;13.03;100.00;100927.66;1762638;80;21132;-87
2021/09/25 19:16:41;;;;;;;24.90;18.30;;;;;;;13.02;100.00;100914.26;1709368;81;20999;-87
2021/09/25 19:19:08;;;;;;;20.37;17.65;;;;;;;12.98;100.00;100915.45;1710972;82;21046;-87
2021/09/25 19:21:35;;;;;;;24.20;17.32;;;;;;;12.94;100.00;100914.38;1762835;80;21089;-86
2021/09/25 19:24:03;;;;;;;16.97;14.58;;;;;;;12.93;100.00;100919.73;1762713;80;21136;-88
2021/09/25 19:26:30;;;;;;;17.67;14.25;;;;;;;12.90;100.00;100916.89;1762685;80;21057;-88
2021/09/25 19:28:57;;;;;;;15.03;13.45;;;;;;;12.88;100.00;100913.56;1762779;80;21426;-86
2021/09/25 19:31:25;;;;;;;15.10;13.38;;;;;;;12.90;100.00;100918.20;1762541;80;21011;-86
2021/09/25 19:33:52;;;;;;;13.60;12.30;;;;;;;12.90;100.00;100910.36;1737439;82;21046;-89
2021/09/25 19:36:19;;;;;;;13.25;11.73;;;;;;;12.88;100.00;100910.14;1688400;83;21045;-89
2021/09/25 19:38:46;;;;;;;12.03;10.93;;;;;;;12.87;100.00;100908.47;1692540;82;21058;-86